Time;durP1;ratioP1;P1;durP2;ratioP2;P2;SDS_P1;SDS_P2;PMS_P1;PMS_P2;Temp;Humidity;BMP_temperature;BMP_pressure;BME280_temperature;BME280_humidity;BME280_pressure;Samples;Min_cycle;Max_cycle;Signal;HPM_P1;HPM_P2
2023/02/03 00:01:47;;;;;;;3.33;2.53;;;7.30;99.90;;;;;;5003785;28;20550;-72
2023/02/03 00:04:12;;;;;;;2.73;2.53;;;7.30;99.90;;;;;;4999830;28;20218;-72
2023/02/03 00:06:39;;;;;;;6.33;2.10;;;7.30;99.90;;;;;;5005836;28;20695;-70
2023/02/03 00:09:04;;;;;;;3.87;2.47;;;7.40;99.90;;;;;;4993252;28;20297;-72
2023/02/03 00:11:31;;;;;;;4.50;2.20;;;7.30;99.90;;;;;;4981140;28;20550;-71
2023/02/03 00:13:56;;;;;;;2.67;2.07;;;7.30;99.90;;;;;;4998527;28;20358;-71
2023/02/03 00:16:22;;;;;;;2.10;1.90;;;7.30;99.90;;;;;;4985738;28;20533;-70
2023/02/03 00:18:47;;;;;;;4.10;2.33;;;7.30;99.90;;;;;;5000601;28;20554;-71
2023/02/03 00:21:14;;;;;;;2.17;1.97;;;7.30;99.90;;;;;;4999130;28;20240;-71
2023/02/03 00:23:42;;;;;;;1.83;1.70;;;7.30;99.90;;;;;;5005485;28;20214;-72
2023/02/03 00:26:13;;;;;;;2.43;2.00;;;7.30;99.90;;;;;;5005236;28;20453;-70
2023/02/03 00:28:41;;;;;;;2.27;1.73;;;7.30;99.90;;;;;;5001772;28;20449;-72
2023/02/03 00:31:20;;;;;;;1.80;1.70;;;7.30;99.90;;;;;;4985391;28;20478;-71
2023/02/03 00:33:46;;;;;;;1.50;1.40;;;7.20;99.90;;;;;;5004039;28;21047;-72
2023/02/03 00:36:12;;;;;;;2.90;1.87;;;7.20;99.90;;;;;;5001900;28;20477;-73
2023/02/03 00:38:37;;;;;;;1.60;1.50;;;7.20;99.90;;;;;;4998563;28;20444;-71
2023/02/03 00:41:03;;;;;;;3.77;1.90;;;7.20;99.90;;;;;;4985995;28;20704;-72
2023/02/03 00:43:29;;;;;;;2.00;1.37;;;7.20;99.90;;;;;;4985050;28;20218;-72
2023/02/03 00:45:55;;;;;;;2.80;1.30;;;7.20;99.90;;;;;;5006919;28;20218;-71
2023/02/03 00:48:20;;;;;;;1.77;1.50;;;7.20;99.90;;;;;;5003469;28;20561;-72
2023/02/03 00:50:46;;;;;;;1.50;1.40;;;7.30;99.90;;;;;;4998809;28;20229;-71
2023/02/03 00:53:12;;;;;;;1.77;1.50;;;7.30;99.90;;;;;;5001543;28;20692;-71
2023/02/03 00:55:38;;;;;;;3.83;1.73;;;7.20;99.90;;;;;;4990330;28;20457;-71
2023/02/03 00:58:04;;;;;;;1.70;1.60;;;7.30;99.90;;;;;;4989699;28;20218;-70
2023/02/03 01:00:29;;;;;;;1.30;1.20;;;7.30;99.90;;;;;;4986430;28;20683;-72
2023/02/03 01:02:55;;;;;;;1.90;1.47;;;7.30;99.90;;;;;;4998362;28;20297;-71
2023/02/03 01:05:22;;;;;;;2.60;1.60;;;7.30;99.90;;;;;;4985155;28;20231;-71
2023/02/03 01:07:47;;;;;;;1.10;0.90;;;7.30;99.90;;;;;;5005932;28;20222;-72
2023/02/03 01:10:14;;;;;;;2.63;1.40;;;7.30;99.90;;;;;;4991954;28;20455;-70
2023/02/03 01:12:40;;;;;;;1.30;1.20;;;7.40;99.90;;;;;;4983246;28;20376;-71
2023/02/03 01:15:06;;;;;;;2.23;1.03;;;7.30;99.90;;;;;;4993187;28;20586;-70
2023/02/03 01:17:31;;;;;;;1.53;1.20;;;7.40;99.90;;;;;;5009475;28;20606;-70
2023/02/03 01:19:57;;;;;;;1.37;1.27;;;7.40;99.90;;;;;;4993391;28;20529;-71
2023/02/03 01:22:23;;;;;;;1.70;0.90;;;7.40;99.90;;;;;;4990563;28;20597;-71
2023/02/03 01:24:48;;;;;;;0.90;0.90;;;7.40;99.90;;;;;;4992499;28;20305;-71
2023/02/03 01:27:14;;;;;;;0.87;0.87;;;7.40;99.90;;;;;;5008844;28;20229;-71
2023/02/03 01:29:40;;;;;;;2.37;1.30;;;7.40;99.90;;;;;;4982839;28;20299;-71
2023/02/03 01:32:05;;;;;;;2.23;1.30;;;7.40;99.90;;;;;;4994748;28;20269;-71
2023/02/03 01:34:33;;;;;;;1.00;1.00;;;7.40;99.90;;;;;;5009190;28;20230;-72
2023/02/03 01:36:59;;;;;;;1.40;1.30;;;7.40;99.90;;;;;;5006773;28;20458;-71
2023/02/03 01:39:25;;;;;;;1.23;1.13;;;7.40;99.90;;;;;;5006345;28;20236;-72
2023/02/03 01:41:51;;;;;;;1.20;1.10;;;7.40;99.90;;;;;;4981055;28;20234;-71
2023/02/03 01:44:35;;;;;;;1.40;0.90;;;7.40;99.90;;;;;;5009591;28;20538;-72
2023/02/03 01:47:02;;;;;;;1.63;1.00;;;7.40;99.90;;;;;;5007149;28;20239;-72
2023/02/03 01:49:35;;;;;;;1.27;1.17;;;7.40;99.90;;;;;;5008440;28;21097;-72
2023/02/03 01:52:02;;;;;;;1.00;0.90;;;7.40;99.90;;;;;;5009212;28;20462;-71
2023/02/03 01:54:36;;;;;;;1.57;1.47;;;7.40;99.90;;;;;;5010664;28;20456;-72
2023/02/03 01:57:06;;;;;;;1.43;1.33;;;7.40;99.90;;;;;;4991571;28;20466;-71
2023/02/03 01:59:33;;;;;;;1.67;1.57;;;7.40;99.90;;;;;;5008974;28;20536;-72
2023/02/03 02:02:00;;;;;;;2.30;1.50;;;7.40;99.90;;;;;;5007591;28;20556;-72
2023/02/03 02:04:35;;;;;;;1.27;1.17;;;7.40;99.90;;;;;;5009096;28;20461;-72
2023/02/03 02:07:02;;;;;;;1.27;1.20;;;7.50;99.90;;;;;;5009227;28;20453;-71
2023/02/03 02:09:28;;;;;;;1.37;1.27;;;7.50;99.90;;;;;;4992949;28;20482;-72
2023/02/03 02:11:53;;;;;;;1.73;1.57;;;7.50;99.90;;;;;;5009054;28;20489;-72
2023/02/03 02:14:19;;;;;;;1.30;1.20;;;7.50;99.90;;;;;;5007986;28;20257;-72
2023/02/03 02:16:56;;;;;;;1.53;1.47;;;7.50;99.90;;;;;;5008721;28;20234;-72
2023/02/03 02:19:25;;;;;;;2.77;1.17;;;7.50;99.90;;;;;;5006240;28;20218;-71
2023/02/03 02:22:11;;;;;;;2.70;1.63;;;7.50;99.90;;;;;;5000269;28;20476;-72
2023/02/03 02:24:58;;;;;;;1.10;1.00;;;7.50;99.90;;;;;;5005986;28;20470;-71
2023/02/03 02:27:48;;;;;;;1.47;1.37;;;7.50;99.90;;;;;;4991405;28;20473;-72
2023/02/03 02:30:33;;;;;;;1.50;1.40;;;7.40;99.90;;;;;;5008572;28;20459;-70
2023/02/03 02:32:58;;;;;;;1.47;1.37;;;7.40;99.90;;;;;;5006654;28;20978;-71
2023/02/03 02:35:47;;;;;;;1.90;1.07;;;7.40;99.90;;;;;;4998925;28;20461;-72
2023/02/03 02:38:22;;;;;;;1.27;1.27;;;7.40;99.90;;;;;;4984517;28;20987;-71
2023/02/03 02:40:53;;;;;;;1.27;1.17;;;7.40;99.90;;;;;;5007200;28;20445;-72
2023/02/03 02:43:39;;;;;;;6.03;1.83;;;7.40;99.90;;;;;;4993474;28;20997;-72
2023/02/03 02:46:15;;;;;;;2.00;1.70;;;7.50;99.90;;;;;;5005189;28;20821;-72
2023/02/03 02:48:51;;;;;;;1.50;1.20;;;7.50;99.90;;;;;;4988609;28;20524;-72
2023/02/03 02:51:19;;;;;;;1.27;1.20;;;7.40;99.90;;;;;;4994370;28;20537;-71
2023/02/03 02:53:59;;;;;;;1.10;1.00;;;7.40;99.90;;;;;;5009417;28;20473;-71
2023/02/03 02:56:27;;;;;;;2.00;1.20;;;7.40;99.90;;;;;;4993187;28;20467;-71
2023/02/03 02:58:56;;;;;;;1.10;1.00;;;7.40;99.90;;;;;;5007087;28;20533;-72
2023/02/03 03:01:22;;;;;;;1.47;1.37;;;7.40;99.90;;;;;;5008017;28;20473;-72
2023/02/03 03:03:48;;;;;;;0.97;0.97;;;7.50;99.90;;;;;;5005293;28;20974;-71
2023/02/03 03:06:28;;;;;;;1.90;1.10;;;7.50;99.90;;;;;;5008920;28;20233;-72
2023/02/03 03:09:02;;;;;;;1.37;1.27;;;7.50;99.90;;;;;;5009296;28;20219;-71
2023/02/03 03:11:32;;;;;;;2.40;1.40;;;7.50;99.90;;;;;;5008056;28;20462;-71
2023/02/03 03:14:01;;;;;;;0.80;0.80;;;7.50;99.90;;;;;;4992572;28;20457;-71
2023/02/03 03:16:30;;;;;;;3.07;1.37;;;7.50;99.90;;;;;;4988237;28;20531;-72
2023/02/03 03:19:08;;;;;;;1.50;1.00;;;7.50;99.90;;;;;;5006420;28;20465;-71
2023/02/03 03:21:42;;;;;;;1.20;1.10;;;7.50;99.90;;;;;;4991675;28;20473;-72
2023/02/03 03:24:11;;;;;;;1.67;1.17;;;7.50;99.90;;;;;;5007803;28;20461;-72
2023/02/03 03:27:25;;;;;;;1.23;0.83;;;7.50;99.90;;;;;;5009240;28;20461;-71
2023/02/03 03:30:13;;;;;;;1.53;1.23;;;7.40;99.90;;;;;;4986757;28;21196;-72
2023/02/03 03:32:39;;;;;;;1.00;0.90;;;7.50;99.90;;;;;;4988651;28;20467;-72
2023/02/03 03:35:06;;;;;;;0.83;0.77;;;7.50;99.90;;;;;;4995410;28;20535;-72
2023/02/03 03:37:40;;;;;;;1.73;1.20;;;7.40;99.90;;;;;;4988103;28;20461;-71
2023/02/03 03:40:17;;;;;;;2.13;1.30;;;7.50;99.90;;;;;;4998642;28;20461;-72
2023/02/03 03:42:46;;;;;;;1.40;1.10;;;7.40;99.90;;;;;;4988536;28;20509;-72
2023/02/03 03:45:23;;;;;;;1.10;1.00;;;7.40;99.90;;;;;;5007113;28;20497;-72
2023/02/03 03:47:59;;;;;;;1.63;1.53;;;7.50;99.90;;;;;;5010470;28;20449;-71
2023/02/03 03:50:33;;;;;;;0.83;0.80;;;7.50;99.90;;;;;;4986830;28;20459;-73
2023/02/03 03:53:01;;;;;;;1.30;1.17;;;7.50;99.90;;;;;;4994595;28;20947;-71
2023/02/03 03:55:29;;;;;;;2.70;1.33;;;7.50;99.90;;;;;;5010945;28;20465;-72
2023/02/03 03:58:07;;;;;;;0.80;0.70;;;7.50;99.90;;;;;;4994333;28;20474;-71
2023/02/03 04:00:36;;;;;;;0.97;0.97;;;7.40;99.90;;;;;;5010925;28;20858;-72
2023/02/03 04:03:12;;;;;;;1.07;0.97;;;7.40;99.90;;;;;;5012383;28;20565;-71
2023/02/03 04:05:39;;;;;;;1.10;1.00;;;7.40;99.90;;;;;;5010993;28;20547;-71
2023/02/03 04:08:05;;;;;;;1.30;1.20;;;7.40;99.90;;;;;;5004192;28;20462;-72
2023/02/03 04:10:42;;;;;;;0.83;0.67;;;7.40;99.90;;;;;;4996720;28;20506;-72
2023/02/03 04:13:09;;;;;;;1.20;1.10;;;7.40;99.90;;;;;;5004851;28;20249;-72
2023/02/03 04:15:35;;;;;;;1.57;0.83;;;7.40;99.90;;;;;;4994583;28;20528;-71
2023/02/03 04:18:01;;;;;;;3.70;0.90;;;7.50;99.90;;;;;;5008092;28;21052;-71
2023/02/03 04:20:28;;;;;;;3.03;1.27;;;7.40;99.90;;;;;;5011185;28;20218;-72
2023/02/03 04:22:54;;;;;;;2.40;1.43;;;7.40;99.90;;;;;;5010722;28;20234;-72
2023/02/03 04:25:20;;;;;;;1.00;1.00;;;7.40;99.90;;;;;;4995939;28;20458;-72
2023/02/03 04:27:46;;;;;;;2.00;0.90;;;7.40;99.90;;;;;;5002212;28;21486;-71
2023/02/03 04:30:12;;;;;;;1.30;1.20;;;7.40;99.90;;;;;;5010752;28;20270;-72
2023/02/03 04:32:38;;;;;;;1.97;1.30;;;7.40;99.90;;;;;;5009750;28;20309;-71
2023/02/03 04:35:05;;;;;;;1.60;1.17;;;7.40;99.90;;;;;;5017706;28;20454;-71
2023/02/03 04:37:31;;;;;;;1.30;1.20;;;7.40;99.90;;;;;;4999016;28;20215;-72
2023/02/03 04:39:57;;;;;;;4.30;1.23;;;7.40;99.90;;;;;;5010664;28;20462;-71
2023/02/03 04:42:23;;;;;;;1.93;1.40;;;7.40;99.90;;;;;;5009934;28;20469;-72
2023/02/03 04:44:50;;;;;;;1.00;0.90;;;7.40;99.90;;;;;;5005018;28;20230;-71
2023/02/03 04:47:16;;;;;;;1.40;1.20;;;7.40;99.90;;;;;;5005587;28;20478;-72
2023/02/03 04:49:42;;;;;;;3.43;1.37;;;7.40;99.90;;;;;;5001718;28;21061;-72
2023/02/03 04:52:08;;;;;;;1.93;1.47;;;7.40;99.90;;;;;;5004388;28;20560;-72
2023/02/03 04:54:34;;;;;;;1.40;1.30;;;7.40;99.90;;;;;;5005479;28;20267;-72
2023/02/03 04:57:00;;;;;;;1.80;1.40;;;7.40;99.90;;;;;;5004691;28;20486;-71
2023/02/03 04:59:26;;;;;;;2.70;1.67;;;7.40;99.90;;;;;;4990155;28;20493;-71
2023/02/03 05:01:52;;;;;;;1.30;1.17;;;7.40;99.90;;;;;;5012454;28;20472;-71
2023/02/03 05:04:19;;;;;;;1.40;1.30;;;7.40;99.90;;;;;;5001898;28;20543;-72
2023/02/03 05:06:44;;;;;;;3.87;1.40;;;7.40;99.90;;;;;;5011443;28;20226;-72
2023/02/03 05:09:10;;;;;;;1.23;1.13;;;7.40;99.90;;;;;;4997192;28;20460;-71
2023/02/03 05:11:36;;;;;;;1.87;1.53;;;7.40;99.90;;;;;;4988981;28;20306;-71
2023/02/03 05:14:02;;;;;;;3.50;1.40;;;7.40;99.90;;;;;;5010424;28;20223;-71
2023/02/03 05:16:27;;;;;;;3.00;1.40;;;7.40;99.90;;;;;;5003270;28;20219;-72
2023/02/03 05:18:53;;;;;;;1.40;1.30;;;7.40;99.90;;;;;;4999747;28;20227;-72
2023/02/03 05:21:19;;;;;;;2.50;1.60;;;7.40;99.90;;;;;;5009477;28;20222;-71
2023/02/03 05:23:45;;;;;;;1.30;1.20;;;7.40;99.90;;;;;;5007741;28;20694;-72
2023/02/03 05:26:10;;;;;;;1.43;1.23;;;7.40;99.90;;;;;;5010953;28;20298;-72
2023/02/03 05:28:36;;;;;;;2.20;1.50;;;7.40;99.90;;;;;;5008556;28;20583;-72
2023/02/03 05:31:02;;;;;;;7.40;1.40;;;7.40;99.90;;;;;;5008691;28;20306;-71
2023/02/03 05:33:28;;;;;;;2.90;1.53;;;7.40;99.90;;;;;;5008228;28;20262;-72
2023/02/03 05:35:54;;;;;;;2.57;1.60;;;7.40;99.90;;;;;;4982493;28;20449;-72
2023/02/03 05:38:20;;;;;;;1.70;1.53;;;7.40;99.90;;;;;;5009238;28;20455;-72
2023/02/03 05:43:35;;;;;;;1.77;1.60;;;7.40;99.90;;;;;;5010368;28;20553;-72
2023/02/03 05:46:05;;;;;;;8.50;1.93;;;7.40;99.90;;;;;;5009008;28;20449;-72
2023/02/03 05:48:31;;;;;;;1.73;1.57;;;7.40;99.90;;;;;;5008774;28;20520;-72
2023/02/03 05:50:56;;;;;;;2.47;2.03;;;7.40;99.90;;;;;;4992570;28;20462;-72
2023/02/03 05:53:23;;;;;;;7.27;1.60;;;7.40;99.90;;;;;;5009027;28;20221;-71
2023/02/03 05:55:48;;;;;;;2.67;1.97;;;7.40;99.90;;;;;;5006156;28;20730;-72
2023/02/03 05:58:14;;;;;;;2.27;2.17;;;7.40;99.90;;;;;;4995574;28;20449;-72
2023/02/03 06:00:40;;;;;;;3.00;2.40;;;7.40;99.90;;;;;;4989822;28;20618;-71
2023/02/03 06:03:06;;;;;;;2.70;1.97;;;7.40;99.90;;;;;;4994465;28;20312;-71
2023/02/03 06:05:33;;;;;;;4.53;2.37;;;7.40;99.90;;;;;;5008578;28;20281;-72
2023/02/03 06:07:59;;;;;;;5.13;1.90;;;7.40;99.90;;;;;;5006771;28;20462;-71
2023/02/03 06:10:26;;;;;;;2.27;2.07;;;7.40;99.90;;;;;;5027427;28;20548;-72
2023/02/03 06:12:52;;;;;;;3.60;2.20;;;7.40;99.90;;;;;;5008316;28;20442;-72
2023/02/03 06:15:18;;;;;;;3.37;2.03;;;7.40;99.90;;;;;;5009458;28;20462;-71
2023/02/03 06:17:45;;;;;;;2.23;1.97;;;7.40;99.90;;;;;;5008910;28;20254;-71
2023/02/03 06:20:12;;;;;;;2.70;1.83;;;7.40;99.90;;;;;;5009545;28;20973;-72
2023/02/03 06:22:38;;;;;;;1.80;1.70;;;7.30;99.90;;;;;;5007915;28;20481;-72
2023/02/03 06:25:04;;;;;;;1.90;1.80;;;7.40;99.90;;;;;;5009469;28;20450;-71
2023/02/03 06:27:30;;;;;;;2.00;1.90;;;7.40;99.90;;;;;;5006045;28;20705;-72
2023/02/03 06:29:56;;;;;;;2.13;1.60;;;7.40;99.90;;;;;;4988367;28;20564;-70
2023/02/03 06:32:21;;;;;;;1.90;1.60;;;7.40;99.90;;;;;;4985420;28;20675;-71
2023/02/03 06:34:47;;;;;;;2.27;1.50;;;7.40;99.90;;;;;;4999476;28;20234;-71
2023/02/03 06:37:13;;;;;;;2.20;2.00;;;7.40;99.90;;;;;;5000446;28;20580;-71
2023/02/03 06:39:39;;;;;;;1.83;1.73;;;7.40;99.90;;;;;;4985124;28;20219;-72
2023/02/03 06:42:04;;;;;;;1.80;1.70;;;7.40;99.90;;;;;;4996688;28;20472;-72
2023/02/03 06:44:30;;;;;;;1.90;1.63;;;7.40;99.90;;;;;;5007524;28;20284;-72
2023/02/03 06:46:57;;;;;;;2.27;1.60;;;7.40;99.90;;;;;;4989975;28;20215;-71
2023/02/03 06:49:23;;;;;;;1.47;1.37;;;7.40;99.90;;;;;;4982261;28;20227;-72
2023/02/03 06:51:49;;;;;;;1.67;1.50;;;7.40;99.90;;;;;;5005531;28;20473;-72
2023/02/03 06:54:14;;;;;;;1.87;1.47;;;7.40;99.90;;;;;;5007488;28;21010;-72
2023/02/03 06:56:40;;;;;;;2.37;1.80;;;7.40;99.90;;;;;;5008440;28;20224;-72
2023/02/03 06:59:07;;;;;;;2.63;1.70;;;7.40;99.90;;;;;;4987941;28;20228;-72
2023/02/03 07:01:33;;;;;;;1.60;1.50;;;7.50;99.90;;;;;;5007139;28;20223;-72
2023/02/03 07:03:58;;;;;;;1.77;1.67;;;7.50;99.90;;;;;;5008468;28;20588;-71
2023/02/03 07:06:32;;;;;;;3.77;2.07;;;7.50;99.90;;;;;;5009738;28;20305;-72
2023/02/03 07:09:00;;;;;;;1.90;1.50;;;7.50;99.90;;;;;;5006267;28;20679;-72
2023/02/03 07:11:26;;;;;;;3.40;1.63;;;7.50;99.90;;;;;;5009128;28;20458;-72
2023/02/03 07:13:53;;;;;;;2.03;1.93;;;7.50;99.90;;;;;;5006508;28;20481;-72
2023/02/03 07:16:19;;;;;;;3.27;1.60;;;7.50;99.90;;;;;;5009269;28;20488;-72
2023/02/03 07:18:45;;;;;;;2.00;1.90;;;7.50;99.90;;;;;;4990316;28;20465;-72
2023/02/03 07:21:11;;;;;;;1.80;1.60;;;7.50;99.90;;;;;;5008021;28;20488;-72
2023/02/03 07:23:37;;;;;;;1.83;1.70;;;7.50;99.90;;;;;;5005972;28;20453;-72
2023/02/03 07:26:04;;;;;;;1.93;1.80;;;7.60;99.90;;;;;;4991674;28;21000;-71
2023/02/03 07:28:34;;;;;;;1.87;1.60;;;7.60;99.90;;;;;;5009596;28;20221;-72
2023/02/03 07:31:00;;;;;;;2.47;1.77;;;7.50;99.90;;;;;;5010203;28;20545;-72
2023/02/03 07:33:27;;;;;;;7.63;2.00;;;7.50;99.90;;;;;;4994879;28;20482;-72
2023/02/03 07:35:58;;;;;;;1.97;1.87;;;7.60;99.90;;;;;;4994732;28;20454;-72
2023/02/03 07:38:25;;;;;;;3.80;1.90;;;7.60;99.90;;;;;;5009687;28;20545;-73
2023/02/03 07:40:51;;;;;;;2.20;1.20;;;7.60;99.90;;;;;;4990660;28;20855;-72
2023/02/03 07:43:16;;;;;;;1.60;1.50;;;7.60;99.90;;;;;;4996644;28;20462;-72
2023/02/03 07:45:42;;;;;;;1.67;1.57;;;7.60;99.90;;;;;;5004495;28;20601;-72
2023/02/03 07:48:08;;;;;;;2.80;1.10;;;7.60;99.90;;;;;;4995458;28;20231;-72
2023/02/03 07:50:33;;;;;;;1.60;1.50;;;7.60;99.90;;;;;;5018747;28;20305;-72
2023/02/03 07:53:00;;;;;;;1.40;1.10;;;7.70;99.90;;;;;;4993823;28;20230;-72
2023/02/03 07:55:26;;;;;;;0.90;0.90;;;7.70;99.90;;;;;;5011134;28;20231;-72
2023/02/03 07:57:53;;;;;;;5.00;1.50;;;7.70;99.90;;;;;;5008100;28;20875;-72
2023/02/03 08:00:19;;;;;;;1.33;0.80;;;7.70;99.90;;;;;;5010042;28;20480;-71
2023/02/03 08:02:46;;;;;;;1.53;1.20;;;7.70;99.90;;;;;;4993893;28;21013;-72
2023/02/03 08:05:14;;;;;;;1.63;1.10;;;7.70;99.90;;;;;;5006457;28;20461;-72
2023/02/03 08:07:39;;;;;;;1.43;1.20;;;7.70;99.90;;;;;;5001930;28;20529;-72
2023/02/03 08:10:06;;;;;;;12.17;1.40;;;7.70;99.90;;;;;;4993580;28;20545;-72
2023/02/03 08:12:32;;;;;;;1.30;1.07;;;7.80;99.90;;;;;;4992799;28;20262;-72
2023/02/03 08:14:58;;;;;;;1.30;1.20;;;7.80;99.90;;;;;;4971549;28;20983;-72
2023/02/03 08:17:24;;;;;;;1.57;1.27;;;7.80;99.90;;;;;;4983906;28;20474;-73
2023/02/03 08:19:49;;;;;;;2.00;1.43;;;7.80;99.90;;;;;;4993079;28;20250;-72
2023/02/03 08:22:15;;;;;;;2.53;1.30;;;7.80;99.90;;;;;;4995556;28;20322;-72
2023/02/03 08:24:45;;;;;;;1.40;1.30;;;7.80;99.90;;;;;;5009822;28;20239;-72
2023/02/03 08:27:17;;;;;;;1.73;1.00;;;7.80;99.90;;;;;;4990335;28;20240;-71
2023/02/03 08:29:44;;;;;;;1.10;1.00;;;7.90;99.90;;;;;;4999394;28;20469;-72
2023/02/03 08:32:12;;;;;;;1.63;1.40;;;7.90;99.90;;;;;;4989314;28;20464;-72
2023/02/03 08:34:38;;;;;;;1.40;1.07;;;7.90;99.90;;;;;;5003463;28;20465;-73
2023/02/03 08:37:04;;;;;;;1.10;1.00;;;7.90;99.90;;;;;;5008249;28;20466;-72
2023/02/03 08:39:30;;;;;;;1.20;1.00;;;7.90;99.90;;;;;;5008269;28;20231;-73
2023/02/03 08:41:55;;;;;;;2.30;2.00;;;8.00;99.90;;;;;;5010633;28;20466;-72
2023/02/03 08:44:21;;;;;;;1.63;1.53;;;8.00;99.90;;;;;;5009107;28;20468;-72
2023/02/03 08:46:51;;;;;;;3.53;1.37;;;8.00;99.90;;;;;;5007588;28;20325;-72
2023/02/03 08:49:18;;;;;;;1.63;1.53;;;8.00;99.90;;;;;;5008963;28;20219;-71
2023/02/03 08:51:44;;;;;;;1.57;1.20;;;8.00;99.90;;;;;;5008731;28;20467;-72
2023/02/03 08:54:10;;;;;;;1.47;1.33;;;8.00;99.90;;;;;;5010282;28;20493;-72
2023/02/03 08:56:36;;;;;;;1.30;1.07;;;8.10;99.90;;;;;;5006258;28;20463;-72
2023/02/03 08:59:02;;;;;;;1.37;1.10;;;8.10;99.90;;;;;;5007884;28;20465;-73
2023/02/03 09:01:28;;;;;;;1.00;0.90;;;8.10;99.90;;;;;;5003278;28;20226;-73
2023/02/03 09:03:53;;;;;;;1.07;0.97;;;8.10;99.90;;;;;;5009181;28;20219;-72
2023/02/03 09:06:19;;;;;;;1.47;1.30;;;8.10;99.90;;;;;;5008383;28;20229;-72
2023/02/03 09:08:45;;;;;;;6.93;1.57;;;8.10;99.90;;;;;;5007083;28;20211;-72
2023/02/03 09:11:14;;;;;;;1.47;1.07;;;8.10;99.90;;;;;;5005526;28;20361;-72
2023/02/03 09:13:44;;;;;;;5.53;1.80;;;8.20;99.90;;;;;;5005629;28;20458;-72
2023/02/03 09:16:11;;;;;;;1.17;0.87;;;8.20;99.90;;;;;;5004326;28;20477;-70
2023/02/03 09:18:37;;;;;;;0.93;0.90;;;8.20;99.90;;;;;;5007665;28;20465;-72
2023/02/03 09:21:10;;;;;;;1.30;1.10;;;8.20;99.90;;;;;;5008897;28;20457;-72
2023/02/03 09:23:36;;;;;;;0.93;0.93;;;8.20;99.90;;;;;;5007210;28;20220;-71
2023/02/03 09:26:06;;;;;;;1.33;1.20;;;8.20;99.90;;;;;;4992066;28;21064;-72
2023/02/03 09:28:32;;;;;;;1.23;1.00;;;8.20;99.90;;;;;;4989447;28;20459;-73
2023/02/03 09:31:03;;;;;;;7.60;1.50;;;8.20;99.90;;;;;;5008229;28;20438;-72
2023/02/03 09:33:29;;;;;;;1.10;1.00;;;8.20;99.90;;;;;;4982434;28;20462;-72
2023/02/03 09:35:56;;;;;;;2.50;0.90;;;8.20;99.90;;;;;;5001462;28;20455;-71
2023/02/03 09:38:22;;;;;;;1.53;1.03;;;8.20;99.90;;;;;;5003287;28;20484;-72
2023/02/03 09:41:13;;;;;;;1.17;1.07;;;8.30;99.90;;;;;;5007073;28;20455;-72
2023/02/03 09:43:42;;;;;;;1.30;1.20;;;8.30;99.90;;;;;;5004505;28;20453;-72
2023/02/03 09:46:13;;;;;;;0.90;0.90;;;8.30;99.90;;;;;;5004824;28;20538;-72
2023/02/03 09:48:43;;;;;;;1.20;1.10;;;8.30;99.90;;;;;;5002846;28;20454;-72
2023/02/03 09:51:26;;;;;;;0.87;0.80;;;8.30;99.90;;;;;;5003984;28;20457;-72
2023/02/03 09:54:30;;;;;;;2.50;0.90;;;8.30;99.90;;;;;;4983143;28;20463;-73
2023/02/03 09:56:59;;;;;;;1.37;1.00;;;8.40;99.90;;;;;;4984105;28;20445;-72
2023/02/03 09:59:33;;;;;;;4.03;0.90;;;8.40;99.90;;;;;;5005593;28;20450;-72
2023/02/03 10:02:08;;;;;;;1.70;1.00;;;8.40;99.90;;;;;;5006799;28;20472;-72
2023/02/03 10:04:52;;;;;;;3.17;1.40;;;8.40;99.90;;;;;;5004918;28;20465;-72
2023/02/03 10:07:27;;;;;;;2.60;1.40;;;8.40;99.90;;;;;;5007110;28;20502;-73
2023/02/03 10:10:01;;;;;;;3.10;1.90;;;8.40;99.90;;;;;;5004869;28;20447;-73
2023/02/03 10:12:46;;;;;;;3.67;1.30;;;8.50;99.90;;;;;;4991029;28;20543;-73
2023/02/03 10:15:25;;;;;;;9.07;1.43;;;8.50;99.90;;;;;;4989428;28;20466;-71
2023/02/03 10:18:04;;;;;;;1.43;1.33;;;8.50;99.90;;;;;;5009085;28;20545;-71
2023/02/03 10:20:49;;;;;;;2.03;1.33;;;8.60;99.90;;;;;;5008585;28;20462;-72
2023/02/03 10:23:23;;;;;;;3.87;3.57;;;8.50;99.90;;;;;;4980055;28;20865;-71
2023/02/03 10:25:54;;;;;;;2.00;1.80;;;8.60;99.90;;;;;;5007929;28;20619;-72
2023/02/03 10:28:29;;;;;;;5.90;3.77;;;8.50;99.90;;;;;;5007471;28;20467;-72
2023/02/03 10:30:57;;;;;;;31.80;18.80;;;8.60;99.90;;;;;;5006667;28;20486;-72
2023/02/03 10:33:26;;;;;;;21.03;14.50;;;8.60;99.90;;;;;;5010249;28;20461;-72
2023/02/03 10:36:01;;;;;;;5.90;5.20;;;8.60;99.90;;;;;;5007514;28;20460;-72
2023/02/03 10:38:32;;;;;;;3.23;2.80;;;8.60;99.90;;;;;;5007638;28;20465;-71
2023/02/03 10:40:58;;;;;;;2.60;2.03;;;8.60;99.90;;;;;;4992574;28;20476;-72
2023/02/03 10:46:09;;;;;;;4.80;1.90;;;8.70;99.90;;;;;;5008487;28;20232;-72
2023/02/03 10:48:36;;;;;;;1.80;1.20;;;8.70;99.90;;;;;;4988901;28;20474;-72
2023/02/03 10:51:02;;;;;;;1.80;1.37;;;8.80;99.90;;;;;;5007337;28;20282;-72
2023/02/03 10:53:35;;;;;;;1.17;1.07;;;8.80;99.90;;;;;;5007629;28;20469;-72
2023/02/03 10:56:08;;;;;;;4.17;1.37;;;8.80;99.90;;;;;;4999333;28;20463;-72
2023/02/03 10:58:35;;;;;;;5.53;3.40;;;8.80;99.90;;;;;;5019482;28;20529;-72
2023/02/03 11:01:41;;;;;;;1.93;1.73;;;8.80;99.90;;;;;;5012301;28;20496;-72
2023/02/03 11:04:27;;;;;;;0.90;0.90;;;8.90;99.90;;;;;;4992864;28;20458;-72
2023/02/03 11:06:56;;;;;;;2.30;1.63;;;8.90;99.90;;;;;;5011105;28;20449;-72
2023/02/03 11:09:33;;;;;;;2.93;1.60;;;8.90;99.90;;;;;;5012385;28;20450;-72
2023/02/03 11:12:05;;;;;;;15.13;1.50;;;8.90;99.90;;;;;;5010275;28;20443;-71
2023/02/03 11:14:36;;;;;;;12.20;1.83;;;8.90;99.90;;;;;;5007712;28;20556;-71
2023/02/03 11:17:22;;;;;;;3.90;1.10;;;8.90;99.90;;;;;;4992033;28;20449;-71
2023/02/03 11:19:50;;;;;;;1.80;1.37;;;8.90;99.90;;;;;;5006483;28;21006;-72
2023/02/03 11:22:31;;;;;;;3.17;1.33;;;8.90;99.90;;;;;;5010023;28;20467;-70
2023/02/03 11:24:58;;;;;;;1.30;1.20;;;8.90;99.90;;;;;;5007558;28;20971;-72
2023/02/03 11:27:26;;;;;;;0.80;0.70;;;8.90;99.90;;;;;;4993122;28;20524;-72
2023/02/03 11:30:07;;;;;;;2.07;1.40;;;8.90;99.90;;;;;;4994144;28;20445;-72
2023/02/03 11:32:35;;;;;;;4.77;3.37;;;8.90;99.90;;;;;;5010151;28;20474;-72
2023/02/03 11:35:15;;;;;;;2.50;1.70;;;8.90;99.90;;;;;;5011003;28;20450;-72
2023/02/03 11:37:44;;;;;;;1.53;1.20;;;9.00;99.90;;;;;;4994821;28;20540;-72
2023/02/03 11:40:10;;;;;;;3.60;1.43;;;9.00;99.90;;;;;;5010151;28;20454;-73
2023/02/03 11:42:41;;;;;;;1.70;1.50;;;9.00;99.90;;;;;;4995188;28;20524;-72
2023/02/03 11:45:27;;;;;;;1.57;1.47;;;9.00;99.90;;;;;;5010895;28;20465;-72
2023/02/03 11:48:07;;;;;;;1.57;1.20;;;9.10;99.90;;;;;;5011215;28;20476;-73
2023/02/03 11:50:40;;;;;;;2.63;0.83;;;9.10;99.90;;;;;;5009590;28;20970;-72
2023/02/03 11:53:18;;;;;;;1.90;0.90;;;9.10;99.90;;;;;;5009176;28;20532;-72
2023/02/03 11:56:02;;;;;;;5.03;1.53;;;9.20;99.90;;;;;;5009217;28;21234;-72
2023/02/03 11:58:45;;;;;;;1.03;0.93;;;9.20;99.90;;;;;;5009433;28;20469;-73
2023/02/03 12:01:29;;;;;;;1.30;0.80;;;9.20;99.90;;;;;;5006559;28;20470;-73
2023/02/03 12:04:27;;;;;;;1.57;1.00;;;9.30;99.90;;;;;;5008989;28;20966;-72
2023/02/03 12:07:07;;;;;;;3.80;1.00;;;9.30;99.90;;;;;;5006901;28;20445;-72
2023/02/03 12:09:57;;;;;;;0.87;0.87;;;9.40;99.90;;;;;;4991968;28;20453;-72
2023/02/03 12:12:49;;;;;;;4.27;1.33;;;9.50;99.90;;;;;;5003480;28;20497;-73
2023/02/03 12:16:12;;;;;;;1.80;1.00;;;9.60;99.90;;;;;;5008952;28;20434;-73
2023/02/03 12:19:09;;;;;;;2.00;1.07;;;9.60;99.90;;;;;;4946498;28;20982;-72
2023/02/03 12:21:48;;;;;;;0.93;0.83;;;9.60;99.90;;;;;;4954732;28;20475;-73
2023/02/03 12:24:58;;;;;;;2.70;2.17;;;9.60;99.90;;;;;;4996533;28;20828;-73
2023/02/03 12:27:27;;;;;;;10.37;3.63;;;9.60;99.90;;;;;;4937848;28;20464;-73
2023/02/03 12:30:02;;;;;;;5.37;3.93;;;9.60;99.90;;;;;;4997816;28;20453;-73
2023/02/03 12:32:37;;;;;;;11.63;6.13;;;9.70;99.90;;;;;;4991431;28;20497;-73
2023/02/03 12:35:21;;;;;;;20.73;11.20;;;9.70;99.90;;;;;;5008673;28;20450;-73
2023/02/03 12:38:29;;;;;;;19.50;10.60;;;9.70;99.90;;;;;;5003614;28;20537;-72
2023/02/03 12:41:00;;;;;;;16.87;8.80;;;9.80;99.90;;;;;;4949907;28;20521;-72
2023/02/03 12:43:48;;;;;;;18.87;8.80;;;9.80;99.90;;;;;;4984309;28;20470;-73
2023/02/03 12:46:20;;;;;;;9.33;6.23;;;9.80;99.90;;;;;;5004796;28;20458;-72
2023/02/03 12:49:04;;;;;;;3.40;2.67;;;9.80;99.90;;;;;;5002205;28;20557;-73
2023/02/03 12:51:37;;;;;;;2.70;1.60;;;9.80;99.90;;;;;;4962351;28;1080057;-73
2023/02/03 12:54:29;;;;;;;0.83;0.83;;;9.80;99.90;;;;;;4982617;28;20467;-73
2023/02/03 12:57:05;;;;;;;1.73;1.30;;;9.80;99.90;;;;;;4973046;28;20450;-73
2023/02/03 12:59:35;;;;;;;7.83;2.30;;;9.80;99.90;;;;;;5003396;28;20465;-73
2023/02/03 13:02:16;;;;;;;6.53;2.13;;;9.80;99.90;;;;;;4991438;28;20466;-72
2023/02/03 13:05:00;;;;;;;2.60;2.10;;;9.80;99.90;;;;;;5005787;28;20468;-73
2023/02/03 13:07:46;;;;;;;2.30;2.10;;;9.80;99.90;;;;;;4995547;28;21049;-73
2023/02/03 13:10:21;;;;;;;6.10;4.90;;;9.80;99.90;;;;;;5004164;28;20497;-72
2023/02/03 13:12:52;;;;;;;5.20;4.53;;;9.80;99.90;;;;;;5006561;28;20530;-73
2023/02/03 13:15:21;;;;;;;3.67;3.37;;;9.70;99.90;;;;;;4991792;28;20473;-73
2023/02/03 13:18:01;;;;;;;4.10;3.47;;;9.80;99.90;;;;;;4989328;28;20982;-73
2023/02/03 13:20:30;;;;;;;6.20;2.63;;;9.70;99.90;;;;;;5010110;28;20458;-73